MMLO

Details ICAO MMLO (BJX)
Name GUANAJUATO INTL
Region Mexico
Timezone America/Mexico_City (UTC-5.0)
Plans Departing 39
Arriving 39
Stats Elevation 5,956 ft / 1,815 m (AMSL)
Location 20.993462° -101.480847°
Runways 1
Magnetic Variation 5.538° E
Sunrise 2018-05-22 12:07:19 UTC / 2018-05-22 07:07:19 Local
Sunset 2018-05-23 01:20:45 UTC / 2018-05-22 20:20:45 Local
Advertisement - Login to hide

Runways

ID Width Length Bearing (true) Bearing (mag) Surface Threshold Offset Overrun Length
13 148 ft / 45 m 11,451 ft / 3,490 m 134.09° 128.55° Asphalt 0 ft / 0 m 204 ft / 62 m
31 148 ft / 45 m 11,451 ft / 3,490 m 314.10° 308.56° Asphalt 0 ft / 0 m 204 ft / 62 m

Map

Weather


0- 5 10 15 20 25 30 35+ Temperature / ° C

Clouds and Precipitation
Forecast for 2018-05-23 00:00 UTC. Updated 3 hours ago

Ground ~20,000 ft ~40,000 ft Winds

METAR

MMLO 230051Z 26008KT 10SM SCT030 29/03 A3010 RMK 8/500

TAF

Not found

Frequencies

Recorded 128.40 MHz ATIS
Approach 119.05 MHz LEON APP
Tower 118.35 MHz LEON TWR
Warning: Do not use this data for real-world aviation or navigation. No guarantee of current accuracy is given.